コペンハーゲン の空港の天気 - METARとTAF

コペンハーゲン国際空港 ( EKCH / CPH ) - デンマーク コペンハーゲン
飛行場実況気象(Metar)
観測時間10/28 17:50 CET (10/28 16:50 UTC)
風向・風速南南西 6m/s
視程10km以上
天気現象
なし
気温11℃
湿度87%
気圧1005hPa
METAREKCH 281650Z AUTO 20011KT 9999 NCD 11/09 Q1005 NOSIG
過去の天気等 Google飛行場航空写真 Wunderground天気予報

過去48時間のMETAR

飛行場予報(TAF)
発表時間: 10/28 12:02 CET (10/28 11:02 UTC)
予報対象時間: 28日13時 CET ~ 29日13時 CET
風向・風速南西 7m/s
視程10km以上
全天の4割程度の雲 雲底高度 610m
28日13時 CET ~ 28日22時 CET に一時的に
天気現象しゅう雨
全天の8割程度の積乱雲 雲底高度 610m
29日7時 CET ~ 29日13時 CET に一時的に
視程4000m
天気現象しゅう雨
全天の8割程度の雲 雲底高度 370m
全天の8割程度の積乱雲 雲底高度 610m
TAF EKCH 281102Z 2812/2912 22013KT 9999 SCT020
TEMPO 2812/2821 SHRA BKN020CB
TEMPO 2906/2912 4000 SHRA BKN012 BKN020CB